METAR AND TAF INFORMATION
METAR FOR VTCC
ADDS - METARS form results

(1125 UTC 19 January 2019)
Data provider http://aviationweather.gov/metar/data/
 
METAR text: VTCC 191100Z 06004KT 9999 FEW035 29/16 Q1013 NOSIG
Conditions at: VTCC (CHIANG MAI(CIV/A, TH) observed 1100 UTC 19 January 2019
Temperature: 29.0°C (84°F)
Dewpoint: 16.0°C (61°F) [RH = 45%]
Pressure (altimeter): 29.91 inches Hg (1013.0 mb)
Winds: from the ENE (60 degrees) at 5 MPH (4 knots; 2.1 m/s)
Visibility: 6 or more miles (10+ km)
Ceiling: at least 12,000 feet AGL
Clouds: few clouds at 3500 feet AGL
Weather: no significant weather observed at this time

METAR text: VTCC 191030Z 06004KT 9999 SCT035 29/16 Q1013 NOSIG
Conditions at: VTCC (CHIANG MAI(CIV/A, TH) observed 1030 UTC 19 January 2019
Temperature: 29.0°C (84°F)
Dewpoint: 16.0°C (61°F) [RH = 45%]
Pressure (altimeter): 29.91 inches Hg (1013.0 mb)
Winds: from the ENE (60 degrees) at 5 MPH (4 knots; 2.1 m/s)
Visibility: 6 or more miles (10+ km)
Ceiling: at least 12,000 feet AGL
Clouds: scattered clouds at 3500 feet AGL
Weather: no significant weather observed at this time

Forecast for: VTCC (CHIANG MAI(CIV/A, TH)
Text: TAF VTCC 190500Z 1906/2012 30005KT 9999 FEW035
Forecast period: 0600 UTC 19 January 2019 to 1200 UTC 20 January 2019
Forecast type: FROM: standard forecast or significant change
Winds: from the WNW (300 degrees) at 6 MPH (5 knots; 2.6 m/s)
Visibility: 6 or more miles 10+ km)
Ceiling: at least 12,000 feet AGL
Clouds: few clouds at 3500 feet AGL
Weather: no significant weather forecast for this period

 AIRPORT MAP

 RUNWAY INFORMATION
Runway 18 Runway length 10171 ft Runway width 148 ft
Runway elevation 1036 ft Runway displaced threshold 0 ft Runway heading 180
Runway 36 Runway length 10171 ft Runway width 148 ft
Runway elevation 1007 ft Runway displaced threshold 0 ft Runway heading 0

 AIRPORT FREQUENCIES
Type APP Name APP Frequency 129.6 MHZ
Type ATIS Name ATIS Frequency 127.2 MHZ
Type GND Name GND Frequency 121.9 MHZ
Type TWR Name TWR Frequency 118.1 MHZ

 AIRPORT NEAR NAVIGATION AIDS
Type NDB Name Chiang Mai Frequency 255 KHZ
Type TACAN Name Chiang Mai Frequency 116200 KHZ
Type VOR-DME Name Chiang Mai Frequency 116900 KHZ



Powered by Virtual Airlines Manager [v2.6.2]